sensor_id;sensor_type;location;lat;lon;timestamp;P1;durP1;ratioP1;P2;durP2;ratioP2
48789;SDS011;41718;51.980;5.734;2022-07-10T00:01:31;2.72;;;1.40;;
48789;SDS011;41718;51.980;5.734;2022-07-10T00:06:32;3.95;;;1.77;;
48789;SDS011;41718;51.980;5.734;2022-07-10T00:11:34;5.90;;;2.00;;
48789;SDS011;41718;51.980;5.734;2022-07-10T00:16:35;3.30;;;1.52;;
48789;SDS011;41718;51.980;5.734;2022-07-10T00:21:37;5.97;;;1.65;;
48789;SDS011;41718;51.980;5.734;2022-07-10T00:26:39;4.85;;;1.63;;
48789;SDS011;41718;51.980;5.734;2022-07-10T00:31:40;6.68;;;1.80;;
48789;SDS011;41718;51.980;5.734;2022-07-10T00:36:42;6.28;;;1.70;;
48789;SDS011;41718;51.980;5.734;2022-07-10T00:41:44;2.33;;;1.38;;
48789;SDS011;41718;51.980;5.734;2022-07-10T00:46:46;3.25;;;1.63;;
48789;SDS011;41718;51.980;5.734;2022-07-10T00:51:48;5.82;;;1.50;;
48789;SDS011;41718;51.980;5.734;2022-07-10T00:56:49;4.38;;;1.45;;
48789;SDS011;41718;51.980;5.734;2022-07-10T01:01:51;1.98;;;1.58;;
48789;SDS011;41718;51.980;5.734;2022-07-10T01:06:53;4.88;;;1.60;;
48789;SDS011;41718;51.980;5.734;2022-07-10T01:11:55;4.65;;;1.55;;
48789;SDS011;41718;51.980;5.734;2022-07-10T01:16:58;4.47;;;2.22;;
48789;SDS011;41718;51.980;5.734;2022-07-10T01:22:00;3.55;;;1.75;;
48789;SDS011;41718;51.980;5.734;2022-07-10T01:27:02;3.53;;;1.75;;
48789;SDS011;41718;51.980;5.734;2022-07-10T01:32:03;4.00;;;1.35;;
48789;SDS011;41718;51.980;5.734;2022-07-10T01:37:05;4.43;;;2.05;;
48789;SDS011;41718;51.980;5.734;2022-07-10T01:42:07;7.07;;;2.28;;
48789;SDS011;41718;51.980;5.734;2022-07-10T01:47:09;6.40;;;1.95;;
48789;SDS011;41718;51.980;5.734;2022-07-10T01:52:10;4.00;;;1.42;;
48789;SDS011;41718;51.980;5.734;2022-07-10T01:57:13;3.80;;;1.63;;
48789;SDS011;41718;51.980;5.734;2022-07-10T02:02:14;4.78;;;1.70;;
48789;SDS011;41718;51.980;5.734;2022-07-10T02:07:17;8.60;;;1.95;;
48789;SDS011;41718;51.980;5.734;2022-07-10T02:12:19;6.68;;;1.63;;
48789;SDS011;41718;51.980;5.734;2022-07-10T02:17:21;3.63;;;1.95;;
48789;SDS011;41718;51.980;5.734;2022-07-10T02:22:24;4.22;;;1.65;;
48789;SDS011;41718;51.980;5.734;2022-07-10T02:27:26;5.05;;;2.20;;
48789;SDS011;41718;51.980;5.734;2022-07-10T02:32:27;4.53;;;1.63;;
48789;SDS011;41718;51.980;5.734;2022-07-10T02:37:29;6.88;;;2.00;;
48789;SDS011;41718;51.980;5.734;2022-07-10T02:42:30;6.95;;;1.85;;
48789;SDS011;41718;51.980;5.734;2022-07-10T02:47:32;4.10;;;1.77;;
48789;SDS011;41718;51.980;5.734;2022-07-10T02:52:33;7.03;;;2.05;;
48789;SDS011;41718;51.980;5.734;2022-07-10T02:57:35;7.80;;;1.88;;
48789;SDS011;41718;51.980;5.734;2022-07-10T03:02:36;6.32;;;1.80;;
48789;SDS011;41718;51.980;5.734;2022-07-10T03:07:38;4.75;;;1.60;;
48789;SDS011;41718;51.980;5.734;2022-07-10T03:12:39;4.22;;;2.00;;
48789;SDS011;41718;51.980;5.734;2022-07-10T03:17:41;4.90;;;1.80;;
48789;SDS011;41718;51.980;5.734;2022-07-10T03:22:43;4.97;;;1.55;;
48789;SDS011;41718;51.980;5.734;2022-07-10T03:27:45;5.55;;;2.08;;
48789;SDS011;41718;51.980;5.734;2022-07-10T03:32:46;3.70;;;1.48;;
48789;SDS011;41718;51.980;5.734;2022-07-10T03:37:48;6.65;;;1.70;;
48789;SDS011;41718;51.980;5.734;2022-07-10T03:42:49;4.45;;;1.60;;
48789;SDS011;41718;51.980;5.734;2022-07-10T03:47:51;4.85;;;1.70;;
48789;SDS011;41718;51.980;5.734;2022-07-10T03:52:52;7.22;;;1.55;;
48789;SDS011;41718;51.980;5.734;2022-07-10T03:57:54;5.93;;;1.70;;
48789;SDS011;41718;51.980;5.734;2022-07-10T04:02:59;8.57;;;1.80;;
48789;SDS011;41718;51.980;5.734;2022-07-10T04:08:02;5.25;;;1.67;;
48789;SDS011;41718;51.980;5.734;2022-07-10T04:13:04;3.53;;;1.90;;
48789;SDS011;41718;51.980;5.734;2022-07-10T04:18:06;6.95;;;1.90;;
48789;SDS011;41718;51.980;5.734;2022-07-10T04:23:08;4.65;;;1.25;;
48789;SDS011;41718;51.980;5.734;2022-07-10T04:28:09;7.40;;;1.92;;
48789;SDS011;41718;51.980;5.734;2022-07-10T04:33:11;3.28;;;1.50;;
48789;SDS011;41718;51.980;5.734;2022-07-10T04:38:12;5.38;;;1.77;;
48789;SDS011;41718;51.980;5.734;2022-07-10T04:43:14;5.85;;;1.70;;
48789;SDS011;41718;51.980;5.734;2022-07-10T04:48:15;4.78;;;2.05;;
48789;SDS011;41718;51.980;5.734;2022-07-10T04:53:17;2.88;;;1.33;;
48789;SDS011;41718;51.980;5.734;2022-07-10T04:58:18;6.20;;;1.77;;
48789;SDS011;41718;51.980;5.734;2022-07-10T05:03:20;5.18;;;1.80;;
48789;SDS011;41718;51.980;5.734;2022-07-10T05:08:21;4.47;;;1.40;;
48789;SDS011;41718;51.980;5.734;2022-07-10T05:13:23;4.78;;;1.35;;
48789;SDS011;41718;51.980;5.734;2022-07-10T05:18:24;4.65;;;1.50;;
48789;SDS011;41718;51.980;5.734;2022-07-10T05:23:26;5.55;;;1.65;;
48789;SDS011;41718;51.980;5.734;2022-07-10T05:28:28;3.25;;;1.42;;
48789;SDS011;41718;51.980;5.734;2022-07-10T05:33:29;6.22;;;1.67;;
48789;SDS011;41718;51.980;5.734;2022-07-10T05:38:31;5.03;;;1.88;;
48789;SDS011;41718;51.980;5.734;2022-07-10T05:43:33;8.60;;;1.75;;
48789;SDS011;41718;51.980;5.734;2022-07-10T05:48:34;5.93;;;2.25;;
48789;SDS011;41718;51.980;5.734;2022-07-10T05:53:36;4.40;;;1.65;;
48789;SDS011;41718;51.980;5.734;2022-07-10T05:58:38;7.07;;;1.85;;
48789;SDS011;41718;51.980;5.734;2022-07-10T06:03:40;8.80;;;1.70;;
48789;SDS011;41718;51.980;5.734;2022-07-10T06:08:42;12.65;;;2.75;;
48789;SDS011;41718;51.980;5.734;2022-07-10T06:13:44;5.63;;;2.15;;
48789;SDS011;41718;51.980;5.734;2022-07-10T06:18:46;3.88;;;1.90;;
48789;SDS011;41718;51.980;5.734;2022-07-10T06:23:47;3.83;;;1.55;;
48789;SDS011;41718;51.980;5.734;2022-07-10T06:28:49;4.60;;;1.55;;
48789;SDS011;41718;51.980;5.734;2022-07-10T06:33:51;5.20;;;2.00;;
48789;SDS011;41718;51.980;5.734;2022-07-10T06:38:52;9.57;;;2.67;;
48789;SDS011;41718;51.980;5.734;2022-07-10T06:43:54;3.75;;;1.35;;
48789;SDS011;41718;51.980;5.734;2022-07-10T06:48:55;5.60;;;1.67;;
48789;SDS011;41718;51.980;5.734;2022-07-10T06:53:57;4.28;;;1.90;;
48789;SDS011;41718;51.980;5.734;2022-07-10T06:58:59;7.57;;;2.22;;
48789;SDS011;41718;51.980;5.734;2022-07-10T07:04:00;8.25;;;2.58;;
48789;SDS011;41718;51.980;5.734;2022-07-10T07:09:02;4.15;;;1.67;;
48789;SDS011;41718;51.980;5.734;2022-07-10T07:14:04;5.57;;;1.52;;
48789;SDS011;41718;51.980;5.734;2022-07-10T07:19:05;4.32;;;1.50;;
48789;SDS011;41718;51.980;5.734;2022-07-10T07:24:07;8.65;;;2.20;;
48789;SDS011;41718;51.980;5.734;2022-07-10T07:29:08;6.53;;;1.90;;
48789;SDS011;41718;51.980;5.734;2022-07-10T07:34:10;3.72;;;1.30;;
48789;SDS011;41718;51.980;5.734;2022-07-10T07:39:12;9.27;;;2.38;;
48789;SDS011;41718;51.980;5.734;2022-07-10T07:44:13;6.25;;;1.88;;
48789;SDS011;41718;51.980;5.734;2022-07-10T07:49:18;6.35;;;2.03;;
48789;SDS011;41718;51.980;5.734;2022-07-10T07:54:20;7.82;;;1.48;;
48789;SDS011;41718;51.980;5.734;2022-07-10T07:59:21;6.88;;;2.35;;
48789;SDS011;41718;51.980;5.734;2022-07-10T08:04:23;8.30;;;1.88;;
48789;SDS011;41718;51.980;5.734;2022-07-10T08:09:25;6.85;;;2.47;;
48789;SDS011;41718;51.980;5.734;2022-07-10T08:14:26;7.05;;;1.98;;
48789;SDS011;41718;51.980;5.734;2022-07-10T08:19:28;8.90;;;2.03;;
48789;SDS011;41718;51.980;5.734;2022-07-10T08:24:30;5.43;;;1.73;;
48789;SDS011;41718;51.980;5.734;2022-07-10T08:29:31;4.35;;;1.67;;
48789;SDS011;41718;51.980;5.734;2022-07-10T08:34:33;6.90;;;1.80;;
48789;SDS011;41718;51.980;5.734;2022-07-10T08:39:34;11.60;;;2.08;;
48789;SDS011;41718;51.980;5.734;2022-07-10T08:44:36;7.30;;;2.22;;
48789;SDS011;41718;51.980;5.734;2022-07-10T08:49:46;5.78;;;1.42;;
48789;SDS011;41718;51.980;5.734;2022-07-10T08:54:48;8.35;;;2.03;;
48789;SDS011;41718;51.980;5.734;2022-07-10T08:59:49;6.47;;;1.13;;
48789;SDS011;41718;51.980;5.734;2022-07-10T09:04:51;7.28;;;1.95;;
48789;SDS011;41718;51.980;5.734;2022-07-10T09:09:54;2.95;;;1.13;;
48789;SDS011;41718;51.980;5.734;2022-07-10T09:15:14;4.40;;;1.50;;
48789;SDS011;41718;51.980;5.734;2022-07-10T09:20:50;3.95;;;1.00;;
48789;SDS011;41718;51.980;5.734;2022-07-10T09:25:48;4.43;;;1.23;;
48789;SDS011;41718;51.980;5.734;2022-07-10T09:30:51;3.08;;;1.10;;
48789;SDS011;41718;51.980;5.734;2022-07-10T09:41:14;1.65;;;0.90;;
48789;SDS011;41718;51.980;5.734;2022-07-10T09:46:16;2.90;;;1.27;;
48789;SDS011;41718;51.980;5.734;2022-07-10T09:51:19;2.50;;;1.13;;
48789;SDS011;41718;51.980;5.734;2022-07-10T09:56:21;1.88;;;1.10;;
48789;SDS011;41718;51.980;5.734;2022-07-10T10:01:25;3.45;;;1.35;;
48789;SDS011;41718;51.980;5.734;2022-07-10T10:06:29;3.95;;;1.20;;
48789;SDS011;41718;51.980;5.734;2022-07-10T10:11:32;4.18;;;1.40;;
48789;SDS011;41718;51.980;5.734;2022-07-10T10:16:36;2.67;;;1.20;;
48789;SDS011;41718;51.980;5.734;2022-07-10T10:21:39;2.83;;;1.05;;
48789;SDS011;41718;51.980;5.734;2022-07-10T10:26:41;2.72;;;1.30;;
48789;SDS011;41718;51.980;5.734;2022-07-10T10:31:44;2.47;;;0.73;;
48789;SDS011;41718;51.980;5.734;2022-07-10T10:36:46;2.45;;;0.90;;
48789;SDS011;41718;51.980;5.734;2022-07-10T10:41:54;3.78;;;1.20;;
48789;SDS011;41718;51.980;5.734;2022-07-10T10:46:57;0.90;;;0.60;;
48789;SDS011;41718;51.980;5.734;2022-07-10T10:52:09;1.63;;;1.00;;
48789;SDS011;41718;51.980;5.734;2022-07-10T10:57:16;2.83;;;1.02;;
48789;SDS011;41718;51.980;5.734;2022-07-10T11:02:22;3.28;;;1.20;;
48789;SDS011;41718;51.980;5.734;2022-07-10T11:13:00;1.73;;;0.85;;
48789;SDS011;41718;51.980;5.734;2022-07-10T11:18:07;1.52;;;0.70;;
48789;SDS011;41718;51.980;5.734;2022-07-10T11:33:50;1.67;;;1.02;;
48789;SDS011;41718;51.980;5.734;2022-07-10T11:39:00;5.20;;;1.17;;
48789;SDS011;41718;51.980;5.734;2022-07-10T11:44:02;1.65;;;0.88;;
48789;SDS011;41718;51.980;5.734;2022-07-10T11:49:05;2.40;;;0.85;;
48789;SDS011;41718;51.980;5.734;2022-07-10T11:54:09;6.72;;;2.03;;
48789;SDS011;41718;51.980;5.734;2022-07-10T11:59:13;4.05;;;1.15;;
48789;SDS011;41718;51.980;5.734;2022-07-10T12:04:20;3.00;;;0.90;;
48789;SDS011;41718;51.980;5.734;2022-07-10T12:09:25;3.78;;;0.93;;
48789;SDS011;41718;51.980;5.734;2022-07-10T12:14:27;4.35;;;1.33;;
48789;SDS011;41718;51.980;5.734;2022-07-10T12:19:30;1.60;;;1.20;;
48789;SDS011;41718;51.980;5.734;2022-07-10T12:24:37;2.42;;;1.17;;
48789;SDS011;41718;51.980;5.734;2022-07-10T12:29:39;1.65;;;0.93;;
48789;SDS011;41718;51.980;5.734;2022-07-10T12:34:41;3.45;;;1.30;;
48789;SDS011;41718;51.980;5.734;2022-07-10T12:39:52;2.25;;;1.00;;
48789;SDS011;41718;51.980;5.734;2022-07-10T12:45:06;2.53;;;0.93;;
48789;SDS011;41718;51.980;5.734;2022-07-10T12:50:18;1.90;;;1.30;;
48789;SDS011;41718;51.980;5.734;2022-07-10T12:55:21;2.13;;;1.08;;
48789;SDS011;41718;51.980;5.734;2022-07-10T13:00:27;2.25;;;1.10;;
48789;SDS011;41718;51.980;5.734;2022-07-10T13:05:36;4.70;;;1.50;;
48789;SDS011;41718;51.980;5.734;2022-07-10T13:10:38;3.00;;;1.10;;
48789;SDS011;41718;51.980;5.734;2022-07-10T13:15:42;2.38;;;0.85;;
48789;SDS011;41718;51.980;5.734;2022-07-10T13:20:51;3.47;;;1.70;;
48789;SDS011;41718;51.980;5.734;2022-07-10T13:26:01;1.35;;;0.68;;
48789;SDS011;41718;51.980;5.734;2022-07-10T13:31:04;1.63;;;1.17;;
48789;SDS011;41718;51.980;5.734;2022-07-10T13:36:06;2.17;;;1.15;;
48789;SDS011;41718;51.980;5.734;2022-07-10T13:41:08;2.22;;;1.45;;
48789;SDS011;41718;51.980;5.734;2022-07-10T13:46:10;1.27;;;0.80;;
48789;SDS011;41718;51.980;5.734;2022-07-10T13:51:11;4.05;;;1.17;;
48789;SDS011;41718;51.980;5.734;2022-07-10T13:56:13;1.00;;;0.70;;
48789;SDS011;41718;51.980;5.734;2022-07-10T14:01:17;1.38;;;0.73;;
48789;SDS011;41718;51.980;5.734;2022-07-10T14:06:19;1.08;;;0.70;;
48789;SDS011;41718;51.980;5.734;2022-07-10T14:11:21;1.48;;;0.60;;
48789;SDS011;41718;51.980;5.734;2022-07-10T14:16:23;4.25;;;1.10;;
48789;SDS011;41718;51.980;5.734;2022-07-10T14:21:25;3.60;;;1.20;;
48789;SDS011;41718;51.980;5.734;2022-07-10T14:26:28;1.63;;;0.77;;
48789;SDS011;41718;51.980;5.734;2022-07-10T14:31:30;2.83;;;0.65;;
48789;SDS011;41718;51.980;5.734;2022-07-10T14:36:32;1.95;;;0.73;;
48789;SDS011;41718;51.980;5.734;2022-07-10T14:41:33;1.75;;;0.88;;
48789;SDS011;41718;51.980;5.734;2022-07-10T14:46:35;1.83;;;0.90;;
48789;SDS011;41718;51.980;5.734;2022-07-10T14:51:37;1.00;;;0.80;;
48789;SDS011;41718;51.980;5.734;2022-07-10T14:56:40;2.22;;;1.00;;
48789;SDS011;41718;51.980;5.734;2022-07-10T15:01:42;0.73;;;0.73;;
48789;SDS011;41718;51.980;5.734;2022-07-10T15:06:44;1.75;;;0.75;;
48789;SDS011;41718;51.980;5.734;2022-07-10T15:11:46;2.33;;;0.90;;
48789;SDS011;41718;51.980;5.734;2022-07-10T15:16:47;3.53;;;0.98;;
48789;SDS011;41718;51.980;5.734;2022-07-10T15:21:49;4.68;;;0.88;;
48789;SDS011;41718;51.980;5.734;2022-07-10T15:26:50;2.17;;;1.05;;
48789;SDS011;41718;51.980;5.734;2022-07-10T15:31:52;1.33;;;0.70;;
48789;SDS011;41718;51.980;5.734;2022-07-10T15:36:59;1.35;;;0.80;;
48789;SDS011;41718;51.980;5.734;2022-07-10T15:42:01;4.63;;;1.17;;
48789;SDS011;41718;51.980;5.734;2022-07-10T15:47:03;1.42;;;0.85;;
48789;SDS011;41718;51.980;5.734;2022-07-10T15:52:05;2.97;;;1.38;;
48789;SDS011;41718;51.980;5.734;2022-07-10T15:57:08;3.30;;;1.05;;
48789;SDS011;41718;51.980;5.734;2022-07-10T16:02:09;2.80;;;0.90;;
48789;SDS011;41718;51.980;5.734;2022-07-10T16:07:12;1.20;;;0.90;;
48789;SDS011;41718;51.980;5.734;2022-07-10T16:12:14;1.20;;;0.80;;
48789;SDS011;41718;51.980;5.734;2022-07-10T16:17:16;2.78;;;1.02;;
48789;SDS011;41718;51.980;5.734;2022-07-10T16:22:18;3.05;;;1.00;;
48789;SDS011;41718;51.980;5.734;2022-07-10T16:27:19;4.93;;;2.03;;
48789;SDS011;41718;51.980;5.734;2022-07-10T16:32:21;2.28;;;0.93;;
48789;SDS011;41718;51.980;5.734;2022-07-10T16:37:22;3.35;;;1.58;;
48789;SDS011;41718;51.980;5.734;2022-07-10T16:42:24;2.97;;;0.93;;
48789;SDS011;41718;51.980;5.734;2022-07-10T16:47:27;1.85;;;1.20;;
48789;SDS011;41718;51.980;5.734;2022-07-10T16:52:28;4.88;;;1.38;;
48789;SDS011;41718;51.980;5.734;2022-07-10T16:57:30;3.58;;;1.35;;
48789;SDS011;41718;51.980;5.734;2022-07-10T17:02:32;2.92;;;1.27;;
48789;SDS011;41718;51.980;5.734;2022-07-10T17:07:33;4.03;;;1.13;;
48789;SDS011;41718;51.980;5.734;2022-07-10T17:12:35;4.22;;;1.13;;
48789;SDS011;41718;51.980;5.734;2022-07-10T17:17:36;2.90;;;1.40;;
48789;SDS011;41718;51.980;5.734;2022-07-10T17:22:39;1.55;;;1.17;;
48789;SDS011;41718;51.980;5.734;2022-07-10T17:27:40;3.38;;;1.70;;
48789;SDS011;41718;51.980;5.734;2022-07-10T17:32:42;3.65;;;1.58;;
48789;SDS011;41718;51.980;5.734;2022-07-10T17:37:44;3.53;;;1.55;;
48789;SDS011;41718;51.980;5.734;2022-07-10T17:42:46;1.80;;;1.13;;
48789;SDS011;41718;51.980;5.734;2022-07-10T17:47:48;5.28;;;1.30;;
48789;SDS011;41718;51.980;5.734;2022-07-10T17:52:49;3.20;;;1.77;;
48789;SDS011;41718;51.980;5.734;2022-07-10T17:57:51;1.80;;;1.17;;
48789;SDS011;41718;51.980;5.734;2022-07-10T18:02:52;4.57;;;1.60;;
48789;SDS011;41718;51.980;5.734;2022-07-10T18:07:54;3.55;;;1.30;;
48789;SDS011;41718;51.980;5.734;2022-07-10T18:12:56;3.70;;;1.50;;
48789;SDS011;41718;51.980;5.734;2022-07-10T18:17:57;2.53;;;1.15;;
48789;SDS011;41718;51.980;5.734;2022-07-10T18:23:00;2.88;;;1.30;;
48789;SDS011;41718;51.980;5.734;2022-07-10T18:28:02;2.53;;;1.40;;
48789;SDS011;41718;51.980;5.734;2022-07-10T18:33:04;1.65;;;1.10;;
48789;SDS011;41718;51.980;5.734;2022-07-10T18:38:30;2.40;;;1.27;;
48789;SDS011;41718;51.980;5.734;2022-07-10T18:43:32;1.55;;;1.17;;
48789;SDS011;41718;51.980;5.734;2022-07-10T18:48:33;2.53;;;1.45;;
48789;SDS011;41718;51.980;5.734;2022-07-10T18:53:35;2.40;;;1.52;;
48789;SDS011;41718;51.980;5.734;2022-07-10T18:58:37;5.55;;;1.70;;
48789;SDS011;41718;51.980;5.734;2022-07-10T19:03:39;2.13;;;1.83;;
48789;SDS011;41718;51.980;5.734;2022-07-10T19:08:42;1.33;;;1.23;;
48789;SDS011;41718;51.980;5.734;2022-07-10T19:13:43;1.80;;;1.45;;
48789;SDS011;41718;51.980;5.734;2022-07-10T19:18:45;2.72;;;1.13;;
48789;SDS011;41718;51.980;5.734;2022-07-10T19:23:48;2.28;;;1.20;;
48789;SDS011;41718;51.980;5.734;2022-07-10T19:28:50;3.03;;;1.85;;
48789;SDS011;41718;51.980;5.734;2022-07-10T19:33:51;3.00;;;1.20;;
48789;SDS011;41718;51.980;5.734;2022-07-10T19:38:53;4.72;;;1.55;;
48789;SDS011;41718;51.980;5.734;2022-07-10T19:43:54;4.55;;;1.73;;
48789;SDS011;41718;51.980;5.734;2022-07-10T19:48:56;5.35;;;1.60;;
48789;SDS011;41718;51.980;5.734;2022-07-10T19:53:58;4.03;;;1.80;;
48789;SDS011;41718;51.980;5.734;2022-07-10T19:59:00;5.38;;;2.20;;
48789;SDS011;41718;51.980;5.734;2022-07-10T20:04:02;6.25;;;1.95;;
48789;SDS011;41718;51.980;5.734;2022-07-10T20:09:03;4.40;;;2.20;;
48789;SDS011;41718;51.980;5.734;2022-07-10T20:14:05;5.63;;;2.58;;
48789;SDS011;41718;51.980;5.734;2022-07-10T20:19:07;6.50;;;2.70;;
48789;SDS011;41718;51.980;5.734;2022-07-10T20:24:08;5.15;;;2.00;;
48789;SDS011;41718;51.980;5.734;2022-07-10T20:29:10;4.95;;;2.25;;
48789;SDS011;41718;51.980;5.734;2022-07-10T20:34:11;4.85;;;2.63;;
48789;SDS011;41718;51.980;5.734;2022-07-10T20:39:13;4.88;;;2.67;;
48789;SDS011;41718;51.980;5.734;2022-07-10T20:44:15;3.92;;;2.08;;
48789;SDS011;41718;51.980;5.734;2022-07-10T20:49:16;7.05;;;3.15;;
48789;SDS011;41718;51.980;5.734;2022-07-10T20:54:18;5.78;;;2.60;;
48789;SDS011;41718;51.980;5.734;2022-07-10T20:59:19;4.43;;;2.30;;
48789;SDS011;41718;51.980;5.734;2022-07-10T21:04:21;5.47;;;2.13;;
48789;SDS011;41718;51.980;5.734;2022-07-10T21:09:23;11.70;;;3.50;;
48789;SDS011;41718;51.980;5.734;2022-07-10T21:14:24;6.60;;;3.08;;
48789;SDS011;41718;51.980;5.734;2022-07-10T21:19:27;4.45;;;2.67;;
48789;SDS011;41718;51.980;5.734;2022-07-10T21:24:28;5.78;;;2.22;;
48789;SDS011;41718;51.980;5.734;2022-07-10T21:29:30;5.00;;;2.80;;
48789;SDS011;41718;51.980;5.734;2022-07-10T21:34:32;5.00;;;2.55;;
48789;SDS011;41718;51.980;5.734;2022-07-10T21:39:33;5.70;;;2.80;;
48789;SDS011;41718;51.980;5.734;2022-07-10T21:44:35;7.53;;;3.03;;
48789;SDS011;41718;51.980;5.734;2022-07-10T21:49:36;5.60;;;2.72;;
48789;SDS011;41718;51.980;5.734;2022-07-10T21:54:38;9.13;;;3.67;;
48789;SDS011;41718;51.980;5.734;2022-07-10T21:59:42;12.90;;;3.30;;
48789;SDS011;41718;51.980;5.734;2022-07-10T22:04:43;7.68;;;3.55;;
48789;SDS011;41718;51.980;5.734;2022-07-10T22:09:45;4.45;;;2.95;;
48789;SDS011;41718;51.980;5.734;2022-07-10T22:14:46;3.42;;;2.15;;
48789;SDS011;41718;51.980;5.734;2022-07-10T22:19:48;4.30;;;2.30;;
48789;SDS011;41718;51.980;5.734;2022-07-10T22:24:50;7.00;;;2.28;;
48789;SDS011;41718;51.980;5.734;2022-07-10T22:29:51;5.57;;;2.17;;
48789;SDS011;41718;51.980;5.734;2022-07-10T22:34:54;5.93;;;2.88;;
48789;SDS011;41718;51.980;5.734;2022-07-10T22:39:56;10.88;;;2.95;;
48789;SDS011;41718;51.980;5.734;2022-07-10T22:44:57;4.05;;;2.95;;
48789;SDS011;41718;51.980;5.734;2022-07-10T22:49:59;5.65;;;2.80;;
48789;SDS011;41718;51.980;5.734;2022-07-10T22:55:01;6.82;;;2.85;;
48789;SDS011;41718;51.980;5.734;2022-07-10T23:00:03;5.40;;;2.55;;
48789;SDS011;41718;51.980;5.734;2022-07-10T23:05:05;10.85;;;3.10;;
48789;SDS011;41718;51.980;5.734;2022-07-10T23:10:07;8.60;;;3.05;;
48789;SDS011;41718;51.980;5.734;2022-07-10T23:15:09;10.48;;;2.60;;
48789;SDS011;41718;51.980;5.734;2022-07-10T23:20:11;8.23;;;2.78;;
48789;SDS011;41718;51.980;5.734;2022-07-10T23:25:13;6.60;;;2.75;;
48789;SDS011;41718;51.980;5.734;2022-07-10T23:30:15;4.05;;;2.83;;
48789;SDS011;41718;51.980;5.734;2022-07-10T23:35:17;10.43;;;2.70;;
48789;SDS011;41718;51.980;5.734;2022-07-10T23:40:25;5.95;;;2.70;;
48789;SDS011;41718;51.980;5.734;2022-07-10T23:45:27;5.35;;;2.60;;
48789;SDS011;41718;51.980;5.734;2022-07-10T23:50:28;7.40;;;2.20;;
48789;SDS011;41718;51.980;5.734;2022-07-10T23:55:30;8.90;;;2.33;;
